sensor_id;sensor_type;location;lat;lon;timestamp;P1;durP1;ratioP1;P2;durP2;ratioP2
30934;SDS011;51033;42.648;23.292;2024-01-06T00:02:16;17.95;;;10.65;;
30934;SDS011;51033;42.648;23.292;2024-01-06T00:04:42;20.90;;;10.50;;
30934;SDS011;51033;42.648;23.292;2024-01-06T00:07:07;18.40;;;10.07;;
30934;SDS011;51033;42.648;23.292;2024-01-06T00:09:32;15.77;;;9.27;;
30934;SDS011;51033;42.648;23.292;2024-01-06T00:11:58;15.35;;;8.73;;
30934;SDS011;51033;42.648;23.292;2024-01-06T00:14:23;12.68;;;6.47;;
30934;SDS011;51033;42.648;23.292;2024-01-06T00:16:49;5.97;;;4.47;;
30934;SDS011;51033;42.648;23.292;2024-01-06T00:19:14;9.70;;;5.03;;
30934;SDS011;51033;42.648;23.292;2024-01-06T00:21:41;5.32;;;3.38;;
30934;SDS011;51033;42.648;23.292;2024-01-06T00:24:09;8.20;;;4.80;;
30934;SDS011;51033;42.648;23.292;2024-01-06T00:26:35;7.10;;;3.95;;
30934;SDS011;51033;42.648;23.292;2024-01-06T00:29:01;5.68;;;3.42;;
30934;SDS011;51033;42.648;23.292;2024-01-06T00:31:26;5.88;;;2.88;;
30934;SDS011;51033;42.648;23.292;2024-01-06T00:33:52;3.38;;;2.03;;
30934;SDS011;51033;42.648;23.292;2024-01-06T00:36:17;2.05;;;1.58;;
30934;SDS011;51033;42.648;23.292;2024-01-06T00:38:43;5.93;;;2.15;;
30934;SDS011;51033;42.648;23.292;2024-01-06T00:41:08;2.42;;;1.70;;
30934;SDS011;51033;42.648;23.292;2024-01-06T00:43:33;5.03;;;1.65;;
30934;SDS011;51033;42.648;23.292;2024-01-06T00:45:59;3.10;;;2.22;;
30934;SDS011;51033;42.648;23.292;2024-01-06T00:48:24;8.25;;;5.00;;
30934;SDS011;51033;42.648;23.292;2024-01-06T00:50:50;4.78;;;2.83;;
30934;SDS011;51033;42.648;23.292;2024-01-06T00:53:15;3.70;;;2.75;;
30934;SDS011;51033;42.648;23.292;2024-01-06T00:55:41;5.60;;;2.60;;
30934;SDS011;51033;42.648;23.292;2024-01-06T00:58:06;3.03;;;2.58;;
30934;SDS011;51033;42.648;23.292;2024-01-06T01:00:31;3.05;;;2.30;;
30934;SDS011;51033;42.648;23.292;2024-01-06T01:02:57;4.95;;;2.70;;
30934;SDS011;51033;42.648;23.292;2024-01-06T01:05:22;2.58;;;2.05;;
30934;SDS011;51033;42.648;23.292;2024-01-06T01:07:48;6.18;;;2.13;;
30934;SDS011;51033;42.648;23.292;2024-01-06T01:10:13;2.75;;;1.92;;
30934;SDS011;51033;42.648;23.292;2024-01-06T01:12:39;9.35;;;5.55;;
30934;SDS011;51033;42.648;23.292;2024-01-06T01:15:04;6.85;;;3.90;;
30934;SDS011;51033;42.648;23.292;2024-01-06T01:17:30;8.55;;;3.90;;
30934;SDS011;51033;42.648;23.292;2024-01-06T01:19:56;4.55;;;3.33;;
30934;SDS011;51033;42.648;23.292;2024-01-06T01:22:21;4.78;;;2.83;;
30934;SDS011;51033;42.648;23.292;2024-01-06T01:24:50;3.53;;;2.50;;
30934;SDS011;51033;42.648;23.292;2024-01-06T01:27:15;2.35;;;2.00;;
30934;SDS011;51033;42.648;23.292;2024-01-06T01:29:40;4.68;;;1.63;;
30934;SDS011;51033;42.648;23.292;2024-01-06T01:32:06;3.40;;;1.85;;
30934;SDS011;51033;42.648;23.292;2024-01-06T01:34:31;3.28;;;2.13;;
30934;SDS011;51033;42.648;23.292;2024-01-06T01:36:57;5.93;;;4.65;;
30934;SDS011;51033;42.648;23.292;2024-01-06T01:39:22;3.17;;;2.25;;
30934;SDS011;51033;42.648;23.292;2024-01-06T01:41:47;4.68;;;2.80;;
30934;SDS011;51033;42.648;23.292;2024-01-06T01:44:13;7.90;;;4.00;;
30934;SDS011;51033;42.648;23.292;2024-01-06T01:46:38;8.10;;;3.80;;
30934;SDS011;51033;42.648;23.292;2024-01-06T01:49:04;11.02;;;6.53;;
30934;SDS011;51033;42.648;23.292;2024-01-06T01:51:31;10.50;;;6.65;;
30934;SDS011;51033;42.648;23.292;2024-01-06T01:53:59;11.60;;;6.60;;
30934;SDS011;51033;42.648;23.292;2024-01-06T01:56:30;11.20;;;6.38;;
30934;SDS011;51033;42.648;23.292;2024-01-06T01:59:07;5.25;;;3.75;;
30934;SDS011;51033;42.648;23.292;2024-01-06T02:01:35;3.80;;;3.22;;
30934;SDS011;51033;42.648;23.292;2024-01-06T02:04:02;3.35;;;2.45;;
30934;SDS011;51033;42.648;23.292;2024-01-06T02:06:28;5.38;;;2.47;;
30934;SDS011;51033;42.648;23.292;2024-01-06T02:08:54;2.10;;;1.80;;
30934;SDS011;51033;42.648;23.292;2024-01-06T02:11:20;2.17;;;1.75;;
30934;SDS011;51033;42.648;23.292;2024-01-06T02:13:45;5.60;;;1.90;;
30934;SDS011;51033;42.648;23.292;2024-01-06T02:16:11;2.63;;;1.70;;
30934;SDS011;51033;42.648;23.292;2024-01-06T02:18:36;3.42;;;1.98;;
30934;SDS011;51033;42.648;23.292;2024-01-06T02:21:02;6.25;;;4.68;;
30934;SDS011;51033;42.648;23.292;2024-01-06T02:23:28;6.45;;;3.65;;
30934;SDS011;51033;42.648;23.292;2024-01-06T02:25:54;5.30;;;3.10;;
30934;SDS011;51033;42.648;23.292;2024-01-06T02:28:20;8.32;;;5.80;;
30934;SDS011;51033;42.648;23.292;2024-01-06T02:30:46;9.82;;;6.22;;
30934;SDS011;51033;42.648;23.292;2024-01-06T02:33:11;6.55;;;3.80;;
30934;SDS011;51033;42.648;23.292;2024-01-06T02:35:46;12.35;;;3.42;;
30934;SDS011;51033;42.648;23.292;2024-01-06T02:38:11;7.03;;;3.20;;
30934;SDS011;51033;42.648;23.292;2024-01-06T02:40:37;4.18;;;3.05;;
30934;SDS011;51033;42.648;23.292;2024-01-06T02:43:02;4.30;;;3.10;;
30934;SDS011;51033;42.648;23.292;2024-01-06T02:45:28;6.95;;;4.93;;
30934;SDS011;51033;42.648;23.292;2024-01-06T02:47:53;8.00;;;4.95;;
30934;SDS011;51033;42.648;23.292;2024-01-06T02:50:19;5.25;;;3.65;;
30934;SDS011;51033;42.648;23.292;2024-01-06T02:52:44;7.88;;;3.65;;
30934;SDS011;51033;42.648;23.292;2024-01-06T02:55:10;5.18;;;3.38;;
30934;SDS011;51033;42.648;23.292;2024-01-06T02:57:37;5.15;;;3.22;;
30934;SDS011;51033;42.648;23.292;2024-01-06T03:00:02;6.38;;;4.13;;
30934;SDS011;51033;42.648;23.292;2024-01-06T03:02:28;3.78;;;2.90;;
30934;SDS011;51033;42.648;23.292;2024-01-06T03:04:54;3.63;;;2.45;;
30934;SDS011;51033;42.648;23.292;2024-01-06T03:07:20;4.47;;;3.15;;
30934;SDS011;51033;42.648;23.292;2024-01-06T03:09:45;6.72;;;4.38;;
30934;SDS011;51033;42.648;23.292;2024-01-06T03:12:11;8.00;;;4.93;;
30934;SDS011;51033;42.648;23.292;2024-01-06T03:14:37;9.20;;;4.43;;
30934;SDS011;51033;42.648;23.292;2024-01-06T03:17:02;12.68;;;6.63;;
30934;SDS011;51033;42.648;23.292;2024-01-06T03:19:28;7.00;;;5.00;;
30934;SDS011;51033;42.648;23.292;2024-01-06T03:21:55;12.55;;;7.45;;
30934;SDS011;51033;42.648;23.292;2024-01-06T03:24:21;10.88;;;7.10;;
30934;SDS011;51033;42.648;23.292;2024-01-06T03:26:48;14.50;;;9.50;;
30934;SDS011;51033;42.648;23.292;2024-01-06T03:29:16;16.15;;;9.80;;
30934;SDS011;51033;42.648;23.292;2024-01-06T03:31:42;15.00;;;9.10;;
30934;SDS011;51033;42.648;23.292;2024-01-06T03:34:08;20.50;;;11.07;;
30934;SDS011;51033;42.648;23.292;2024-01-06T03:36:35;14.48;;;9.35;;
30934;SDS011;51033;42.648;23.292;2024-01-06T03:39:00;18.90;;;10.85;;
30934;SDS011;51033;42.648;23.292;2024-01-06T03:41:35;14.40;;;9.88;;
30934;SDS011;51033;42.648;23.292;2024-01-06T03:44:00;13.23;;;7.85;;
30934;SDS011;51033;42.648;23.292;2024-01-06T03:46:26;6.70;;;4.70;;
30934;SDS011;51033;42.648;23.292;2024-01-06T03:48:52;7.25;;;3.67;;
30934;SDS011;51033;42.648;23.292;2024-01-06T03:51:17;5.47;;;3.47;;
30934;SDS011;51033;42.648;23.292;2024-01-06T03:53:43;3.97;;;2.13;;
30934;SDS011;51033;42.648;23.292;2024-01-06T03:56:08;3.80;;;2.08;;
30934;SDS011;51033;42.648;23.292;2024-01-06T03:58:34;2.03;;;1.70;;
30934;SDS011;51033;42.648;23.292;2024-01-06T04:01:00;4.13;;;2.67;;
30934;SDS011;51033;42.648;23.292;2024-01-06T04:03:25;4.97;;;3.08;;
30934;SDS011;51033;42.648;23.292;2024-01-06T04:05:51;6.32;;;4.35;;
30934;SDS011;51033;42.648;23.292;2024-01-06T04:08:17;6.68;;;3.65;;
30934;SDS011;51033;42.648;23.292;2024-01-06T04:10:43;3.72;;;3.08;;
30934;SDS011;51033;42.648;23.292;2024-01-06T04:13:08;5.10;;;2.35;;
30934;SDS011;51033;42.648;23.292;2024-01-06T04:15:50;2.58;;;2.22;;
30934;SDS011;51033;42.648;23.292;2024-01-06T04:18:16;5.47;;;1.80;;
30934;SDS011;51033;42.648;23.292;2024-01-06T04:20:42;2.42;;;1.95;;
30934;SDS011;51033;42.648;23.292;2024-01-06T04:23:07;4.30;;;2.92;;
30934;SDS011;51033;42.648;23.292;2024-01-06T04:25:32;4.72;;;2.05;;
30934;SDS011;51033;42.648;23.292;2024-01-06T04:27:58;4.63;;;2.47;;
30934;SDS011;51033;42.648;23.292;2024-01-06T04:30:23;4.63;;;2.45;;
30934;SDS011;51033;42.648;23.292;2024-01-06T04:32:50;5.88;;;2.15;;
30934;SDS011;51033;42.648;23.292;2024-01-06T04:35:16;5.32;;;3.08;;
30934;SDS011;51033;42.648;23.292;2024-01-06T04:37:42;3.63;;;2.05;;
30934;SDS011;51033;42.648;23.292;2024-01-06T04:40:07;3.78;;;2.15;;
30934;SDS011;51033;42.648;23.292;2024-01-06T04:42:33;6.20;;;2.42;;
30934;SDS011;51033;42.648;23.292;2024-01-06T04:44:59;5.68;;;3.05;;
30934;SDS011;51033;42.648;23.292;2024-01-06T04:47:30;3.70;;;2.58;;
30934;SDS011;51033;42.648;23.292;2024-01-06T04:49:56;7.32;;;3.22;;
30934;SDS011;51033;42.648;23.292;2024-01-06T04:52:21;4.60;;;2.72;;
30934;SDS011;51033;42.648;23.292;2024-01-06T04:54:47;4.95;;;2.85;;
30934;SDS011;51033;42.648;23.292;2024-01-06T04:57:13;9.27;;;3.42;;
30934;SDS011;51033;42.648;23.292;2024-01-06T04:59:39;8.20;;;3.70;;
30934;SDS011;51033;42.648;23.292;2024-01-06T05:02:04;10.15;;;4.25;;
30934;SDS011;51033;42.648;23.292;2024-01-06T05:04:30;6.70;;;4.43;;
30934;SDS011;51033;42.648;23.292;2024-01-06T05:06:57;8.45;;;4.90;;
30934;SDS011;51033;42.648;23.292;2024-01-06T05:09:23;11.10;;;6.82;;
30934;SDS011;51033;42.648;23.292;2024-01-06T05:11:48;10.07;;;6.45;;
30934;SDS011;51033;42.648;23.292;2024-01-06T05:14:14;13.38;;;7.05;;
30934;SDS011;51033;42.648;23.292;2024-01-06T05:16:39;13.88;;;7.95;;
30934;SDS011;51033;42.648;23.292;2024-01-06T05:19:05;10.55;;;6.28;;
30934;SDS011;51033;42.648;23.292;2024-01-06T05:21:30;9.57;;;6.72;;
30934;SDS011;51033;42.648;23.292;2024-01-06T05:23:56;14.23;;;7.30;;
30934;SDS011;51033;42.648;23.292;2024-01-06T05:26:21;10.65;;;5.95;;
30934;SDS011;51033;42.648;23.292;2024-01-06T05:28:47;7.57;;;5.53;;
30934;SDS011;51033;42.648;23.292;2024-01-06T05:31:12;10.95;;;5.93;;
30934;SDS011;51033;42.648;23.292;2024-01-06T05:33:38;11.77;;;5.00;;
30934;SDS011;51033;42.648;23.292;2024-01-06T05:36:03;10.05;;;4.80;;
30934;SDS011;51033;42.648;23.292;2024-01-06T05:38:29;10.75;;;7.18;;
30934;SDS011;51033;42.648;23.292;2024-01-06T05:40:58;10.02;;;5.55;;
30934;SDS011;51033;42.648;23.292;2024-01-06T05:43:23;8.63;;;6.10;;
30934;SDS011;51033;42.648;23.292;2024-01-06T05:45:49;8.88;;;5.68;;
30934;SDS011;51033;42.648;23.292;2024-01-06T05:48:14;8.65;;;5.15;;
30934;SDS011;51033;42.648;23.292;2024-01-06T05:50:40;9.35;;;4.53;;
30934;SDS011;51033;42.648;23.292;2024-01-06T05:53:06;5.95;;;4.18;;
30934;SDS011;51033;42.648;23.292;2024-01-06T05:55:32;6.97;;;4.55;;
30934;SDS011;51033;42.648;23.292;2024-01-06T05:57:57;5.78;;;2.80;;
30934;SDS011;51033;42.648;23.292;2024-01-06T06:00:23;4.40;;;3.10;;
30934;SDS011;51033;42.648;23.292;2024-01-06T06:02:48;6.15;;;3.25;;
30934;SDS011;51033;42.648;23.292;2024-01-06T06:05:14;7.22;;;4.70;;
30934;SDS011;51033;42.648;23.292;2024-01-06T06:07:39;12.77;;;6.28;;
30934;SDS011;51033;42.648;23.292;2024-01-06T06:10:08;7.63;;;5.13;;
30934;SDS011;51033;42.648;23.292;2024-01-06T06:12:35;14.73;;;8.82;;
30934;SDS011;51033;42.648;23.292;2024-01-06T06:15:04;14.73;;;6.03;;
30934;SDS011;51033;42.648;23.292;2024-01-06T06:17:31;9.38;;;5.50;;
30934;SDS011;51033;42.648;23.292;2024-01-06T06:19:57;10.30;;;5.63;;
30934;SDS011;51033;42.648;23.292;2024-01-06T06:22:23;8.93;;;5.72;;
30934;SDS011;51033;42.648;23.292;2024-01-06T06:24:55;9.63;;;5.88;;
30934;SDS011;51033;42.648;23.292;2024-01-06T06:27:27;8.60;;;7.32;;
30934;SDS011;51033;42.648;23.292;2024-01-06T06:29:54;13.27;;;9.13;;
30934;SDS011;51033;42.648;23.292;2024-01-06T06:32:21;26.30;;;11.35;;
30934;SDS011;51033;42.648;23.292;2024-01-06T06:34:47;19.25;;;9.05;;
30934;SDS011;51033;42.648;23.292;2024-01-06T06:37:12;16.27;;;10.45;;
30934;SDS011;51033;42.648;23.292;2024-01-06T06:39:38;16.38;;;10.13;;
30934;SDS011;51033;42.648;23.292;2024-01-06T06:42:03;13.55;;;7.88;;
30934;SDS011;51033;42.648;23.292;2024-01-06T06:44:29;10.23;;;6.20;;
30934;SDS011;51033;42.648;23.292;2024-01-06T06:46:57;25.15;;;14.85;;
30934;SDS011;51033;42.648;23.292;2024-01-06T06:49:23;28.45;;;17.55;;
30934;SDS011;51033;42.648;23.292;2024-01-06T06:51:48;25.42;;;15.15;;
30934;SDS011;51033;42.648;23.292;2024-01-06T06:54:15;16.70;;;11.85;;
30934;SDS011;51033;42.648;23.292;2024-01-06T06:56:43;19.40;;;12.65;;
30934;SDS011;51033;42.648;23.292;2024-01-06T06:59:09;16.35;;;10.82;;
30934;SDS011;51033;42.648;23.292;2024-01-06T07:01:35;21.40;;;10.50;;
30934;SDS011;51033;42.648;23.292;2024-01-06T07:04:08;15.88;;;10.10;;
30934;SDS011;51033;42.648;23.292;2024-01-06T07:06:35;19.02;;;9.25;;
30934;SDS011;51033;42.648;23.292;2024-01-06T07:09:01;14.98;;;9.05;;
30934;SDS011;51033;42.648;23.292;2024-01-06T07:11:26;14.27;;;9.73;;
30934;SDS011;51033;42.648;23.292;2024-01-06T07:13:52;16.92;;;9.82;;
30934;SDS011;51033;42.648;23.292;2024-01-06T07:16:18;14.73;;;9.43;;
30934;SDS011;51033;42.648;23.292;2024-01-06T07:18:44;21.98;;;10.73;;
30934;SDS011;51033;42.648;23.292;2024-01-06T07:21:09;19.58;;;9.82;;
30934;SDS011;51033;42.648;23.292;2024-01-06T07:23:42;15.18;;;9.43;;
30934;SDS011;51033;42.648;23.292;2024-01-06T07:26:07;15.55;;;9.65;;
30934;SDS011;51033;42.648;23.292;2024-01-06T07:28:33;14.95;;;10.82;;
30934;SDS011;51033;42.648;23.292;2024-01-06T07:31:00;21.30;;;12.07;;
30934;SDS011;51033;42.648;23.292;2024-01-06T07:33:25;20.77;;;11.73;;
30934;SDS011;51033;42.648;23.292;2024-01-06T07:35:51;22.52;;;13.40;;
30934;SDS011;51033;42.648;23.292;2024-01-06T07:38:17;20.50;;;12.75;;
30934;SDS011;51033;42.648;23.292;2024-01-06T07:40:45;21.58;;;13.50;;
30934;SDS011;51033;42.648;23.292;2024-01-06T07:43:13;29.30;;;17.42;;
30934;SDS011;51033;42.648;23.292;2024-01-06T07:45:40;24.38;;;13.85;;
30934;SDS011;51033;42.648;23.292;2024-01-06T07:48:06;29.17;;;14.75;;
30934;SDS011;51033;42.648;23.292;2024-01-06T07:50:32;24.45;;;13.43;;
30934;SDS011;51033;42.648;23.292;2024-01-06T07:52:57;23.52;;;13.93;;
30934;SDS011;51033;42.648;23.292;2024-01-06T07:55:23;23.90;;;14.02;;
30934;SDS011;51033;42.648;23.292;2024-01-06T07:57:48;14.32;;;10.65;;
30934;SDS011;51033;42.648;23.292;2024-01-06T08:00:13;14.48;;;9.63;;
30934;SDS011;51033;42.648;23.292;2024-01-06T08:02:42;14.07;;;9.30;;
30934;SDS011;51033;42.648;23.292;2024-01-06T08:05:07;15.52;;;9.10;;
30934;SDS011;51033;42.648;23.292;2024-01-06T08:07:33;14.18;;;8.90;;
30934;SDS011;51033;42.648;23.292;2024-01-06T08:09:59;14.57;;;8.13;;
30934;SDS011;51033;42.648;23.292;2024-01-06T08:12:25;15.95;;;9.18;;
30934;SDS011;51033;42.648;23.292;2024-01-06T08:14:50;23.70;;;13.93;;
30934;SDS011;51033;42.648;23.292;2024-01-06T08:17:15;23.08;;;13.93;;
30934;SDS011;51033;42.648;23.292;2024-01-06T08:19:41;27.75;;;16.67;;
30934;SDS011;51033;42.648;23.292;2024-01-06T08:22:07;28.15;;;15.43;;
30934;SDS011;51033;42.648;23.292;2024-01-06T08:24:35;29.77;;;14.93;;
30934;SDS011;51033;42.648;23.292;2024-01-06T08:27:01;23.73;;;14.45;;
30934;SDS011;51033;42.648;23.292;2024-01-06T08:29:26;22.15;;;10.18;;
30934;SDS011;51033;42.648;23.292;2024-01-06T08:31:52;18.65;;;9.35;;
30934;SDS011;51033;42.648;23.292;2024-01-06T08:34:19;15.18;;;8.77;;
30934;SDS011;51033;42.648;23.292;2024-01-06T08:36:45;16.92;;;10.27;;
30934;SDS011;51033;42.648;23.292;2024-01-06T08:39:11;15.32;;;9.00;;
30934;SDS011;51033;42.648;23.292;2024-01-06T08:41:39;12.88;;;7.00;;
30934;SDS011;51033;42.648;23.292;2024-01-06T08:44:05;11.70;;;6.00;;
30934;SDS011;51033;42.648;23.292;2024-01-06T08:46:30;20.02;;;11.18;;
30934;SDS011;51033;42.648;23.292;2024-01-06T08:48:56;27.75;;;14.43;;
30934;SDS011;51033;42.648;23.292;2024-01-06T08:51:21;33.65;;;15.10;;
30934;SDS011;51033;42.648;23.292;2024-01-06T08:53:49;25.85;;;13.85;;
30934;SDS011;51033;42.648;23.292;2024-01-06T08:56:14;31.52;;;14.80;;
30934;SDS011;51033;42.648;23.292;2024-01-06T08:58:41;24.20;;;14.32;;
30934;SDS011;51033;42.648;23.292;2024-01-06T09:01:06;21.83;;;12.98;;
30934;SDS011;51033;42.648;23.292;2024-01-06T09:03:31;28.15;;;12.73;;
30934;SDS011;51033;42.648;23.292;2024-01-06T09:05:57;23.23;;;12.73;;
30934;SDS011;51033;42.648;23.292;2024-01-06T09:08:22;28.00;;;13.88;;
30934;SDS011;51033;42.648;23.292;2024-01-06T09:10:57;22.30;;;13.00;;
30934;SDS011;51033;42.648;23.292;2024-01-06T09:13:26;25.45;;;13.10;;
30934;SDS011;51033;42.648;23.292;2024-01-06T09:15:51;22.77;;;14.15;;
30934;SDS011;51033;42.648;23.292;2024-01-06T09:18:17;22.50;;;12.48;;
30934;SDS011;51033;42.648;23.292;2024-01-06T09:20:43;26.13;;;13.50;;
30934;SDS011;51033;42.648;23.292;2024-01-06T09:23:08;23.20;;;13.43;;
30934;SDS011;51033;42.648;23.292;2024-01-06T09:25:35;30.20;;;15.38;;
30934;SDS011;51033;42.648;23.292;2024-01-06T09:28:00;24.85;;;15.57;;
30934;SDS011;51033;42.648;23.292;2024-01-06T09:30:29;25.75;;;13.25;;
30934;SDS011;51033;42.648;23.292;2024-01-06T09:32:54;26.70;;;13.52;;
30934;SDS011;51033;42.648;23.292;2024-01-06T09:35:20;33.55;;;17.27;;
30934;SDS011;51033;42.648;23.292;2024-01-06T09:37:48;24.55;;;13.02;;
30934;SDS011;51033;42.648;23.292;2024-01-06T09:40:14;27.52;;;13.60;;
30934;SDS011;51033;42.648;23.292;2024-01-06T09:42:46;30.77;;;14.93;;
30934;SDS011;51033;42.648;23.292;2024-01-06T09:45:11;30.48;;;15.88;;
30934;SDS011;51033;42.648;23.292;2024-01-06T09:47:37;26.05;;;15.27;;
30934;SDS011;51033;42.648;23.292;2024-01-06T09:50:06;27.98;;;14.18;;
30934;SDS011;51033;42.648;23.292;2024-01-06T09:52:34;31.17;;;13.63;;
30934;SDS011;51033;42.648;23.292;2024-01-06T09:55:05;27.33;;;13.02;;
30934;SDS011;51033;42.648;23.292;2024-01-06T09:57:36;25.65;;;12.73;;
30934;SDS011;51033;42.648;23.292;2024-01-06T10:00:02;21.15;;;13.55;;
30934;SDS011;51033;42.648;23.292;2024-01-06T10:02:33;30.42;;;14.10;;
30934;SDS011;51033;42.648;23.292;2024-01-06T10:04:58;22.92;;;13.55;;
30934;SDS011;51033;42.648;23.292;2024-01-06T10:07:27;22.98;;;12.75;;
30934;SDS011;51033;42.648;23.292;2024-01-06T10:09:56;30.83;;;16.85;;
30934;SDS011;51033;42.648;23.292;2024-01-06T10:12:25;30.90;;;15.73;;
30934;SDS011;51033;42.648;23.292;2024-01-06T10:14:51;32.53;;;16.60;;
30934;SDS011;51033;42.648;23.292;2024-01-06T10:17:17;32.95;;;16.90;;
30934;SDS011;51033;42.648;23.292;2024-01-06T10:19:44;32.05;;;15.38;;
30934;SDS011;51033;42.648;23.292;2024-01-06T10:22:10;37.30;;;18.63;;
30934;SDS011;51033;42.648;23.292;2024-01-06T10:24:39;38.05;;;19.88;;
30934;SDS011;51033;42.648;23.292;2024-01-06T10:27:05;28.15;;;14.90;;
30934;SDS011;51033;42.648;23.292;2024-01-06T10:29:31;25.70;;;14.70;;
30934;SDS011;51033;42.648;23.292;2024-01-06T10:31:57;25.08;;;14.32;;
30934;SDS011;51033;42.648;23.292;2024-01-06T10:34:24;37.35;;;16.08;;
30934;SDS011;51033;42.648;23.292;2024-01-06T10:36:50;28.42;;;16.02;;
30934;SDS011;51033;42.648;23.292;2024-01-06T10:39:17;24.67;;;13.13;;
30934;SDS011;51033;42.648;23.292;2024-01-06T10:41:43;31.70;;;13.73;;
30934;SDS011;51033;42.648;23.292;2024-01-06T10:44:09;24.23;;;13.98;;
30934;SDS011;51033;42.648;23.292;2024-01-06T10:46:36;25.10;;;12.98;;
30934;SDS011;51033;42.648;23.292;2024-01-06T10:49:04;22.33;;;12.32;;
30934;SDS011;51033;42.648;23.292;2024-01-06T10:51:33;17.70;;;9.70;;
30934;SDS011;51033;42.648;23.292;2024-01-06T10:54:01;21.00;;;11.23;;
30934;SDS011;51033;42.648;23.292;2024-01-06T10:56:27;18.67;;;11.80;;
30934;SDS011;51033;42.648;23.292;2024-01-06T10:58:54;18.20;;;10.68;;
30934;SDS011;51033;42.648;23.292;2024-01-06T11:01:22;25.02;;;13.23;;
30934;SDS011;51033;42.648;23.292;2024-01-06T11:03:55;23.90;;;12.20;;
30934;SDS011;51033;42.648;23.292;2024-01-06T11:06:21;25.38;;;13.07;;
30934;SDS011;51033;42.648;23.292;2024-01-06T11:09:07;30.52;;;15.48;;
30934;SDS011;51033;42.648;23.292;2024-01-06T11:11:38;36.75;;;14.57;;
30934;SDS011;51033;42.648;23.292;2024-01-06T11:14:21;27.67;;;14.50;;
30934;SDS011;51033;42.648;23.292;2024-01-06T11:16:47;29.20;;;12.00;;
30934;SDS011;51033;42.648;23.292;2024-01-06T11:24:46;27.15;;;15.50;;
30934;SDS011;51033;42.648;23.292;2024-01-06T11:27:23;27.65;;;15.27;;
30934;SDS011;51033;42.648;23.292;2024-01-06T11:29:53;27.50;;;14.38;;
30934;SDS011;51033;42.648;23.292;2024-01-06T11:32:29;30.25;;;16.35;;
30934;SDS011;51033;42.648;23.292;2024-01-06T11:35:11;32.92;;;18.45;;
30934;SDS011;51033;42.648;23.292;2024-01-06T11:40:10;35.55;;;19.25;;
30934;SDS011;51033;42.648;23.292;2024-01-06T11:45:26;27.80;;;15.52;;
30934;SDS011;51033;42.648;23.292;2024-01-06T11:47:59;32.80;;;16.52;;
30934;SDS011;51033;42.648;23.292;2024-01-06T11:50:27;32.22;;;18.17;;
30934;SDS011;51033;42.648;23.292;2024-01-06T11:53:04;34.58;;;14.70;;
30934;SDS011;51033;42.648;23.292;2024-01-06T11:55:31;28.25;;;15.48;;
30934;SDS011;51033;42.648;23.292;2024-01-06T11:57:57;29.05;;;15.73;;
30934;SDS011;51033;42.648;23.292;2024-01-06T12:00:27;25.75;;;15.20;;
30934;SDS011;51033;42.648;23.292;2024-01-06T12:02:59;24.17;;;16.00;;
30934;SDS011;51033;42.648;23.292;2024-01-06T12:05:26;30.58;;;16.20;;
30934;SDS011;51033;42.648;23.292;2024-01-06T12:07:56;27.08;;;15.27;;
30934;SDS011;51033;42.648;23.292;2024-01-06T12:10:27;26.98;;;15.05;;
30934;SDS011;51033;42.648;23.292;2024-01-06T12:13:01;25.63;;;14.95;;
30934;SDS011;51033;42.648;23.292;2024-01-06T12:15:28;24.08;;;13.75;;
30934;SDS011;51033;42.648;23.292;2024-01-06T12:17:54;24.70;;;13.38;;
30934;SDS011;51033;42.648;23.292;2024-01-06T12:20:24;22.58;;;13.63;;
30934;SDS011;51033;42.648;23.292;2024-01-06T12:22:54;27.95;;;14.07;;
30934;SDS011;51033;42.648;23.292;2024-01-06T12:25:23;23.33;;;12.88;;
30934;SDS011;51033;42.648;23.292;2024-01-06T12:27:50;21.63;;;12.10;;
30934;SDS011;51033;42.648;23.292;2024-01-06T12:30:19;17.38;;;12.63;;
30934;SDS011;51033;42.648;23.292;2024-01-06T12:32:50;25.05;;;13.57;;
30934;SDS011;51033;42.648;23.292;2024-01-06T12:35:17;18.73;;;13.52;;
30934;SDS011;51033;42.648;23.292;2024-01-06T12:37:46;26.30;;;12.07;;
30934;SDS011;51033;42.648;23.292;2024-01-06T12:40:12;17.35;;;10.68;;
30934;SDS011;51033;42.648;23.292;2024-01-06T12:42:38;23.50;;;11.10;;
30934;SDS011;51033;42.648;23.292;2024-01-06T12:45:04;21.13;;;11.15;;
30934;SDS011;51033;42.648;23.292;2024-01-06T12:47:31;23.15;;;11.88;;
30934;SDS011;51033;42.648;23.292;2024-01-06T12:49:57;20.52;;;10.80;;
30934;SDS011;51033;42.648;23.292;2024-01-06T12:52:25;19.13;;;10.52;;
30934;SDS011;51033;42.648;23.292;2024-01-06T12:54:54;21.83;;;12.07;;
30934;SDS011;51033;42.648;23.292;2024-01-06T12:57:22;22.98;;;11.88;;
30934;SDS011;51033;42.648;23.292;2024-01-06T12:59:48;19.52;;;12.15;;
30934;SDS011;51033;42.648;23.292;2024-01-06T13:02:13;20.75;;;11.13;;
30934;SDS011;51033;42.648;23.292;2024-01-06T13:04:39;20.02;;;12.75;;
30934;SDS011;51033;42.648;23.292;2024-01-06T13:07:04;25.20;;;13.32;;
30934;SDS011;51033;42.648;23.292;2024-01-06T13:09:30;21.73;;;13.85;;
30934;SDS011;51033;42.648;23.292;2024-01-06T13:11:55;22.60;;;13.20;;
30934;SDS011;51033;42.648;23.292;2024-01-06T13:14:25;30.73;;;12.98;;
30934;SDS011;51033;42.648;23.292;2024-01-06T13:16:51;28.65;;;12.43;;
30934;SDS011;51033;42.648;23.292;2024-01-06T13:19:17;19.50;;;11.88;;
30934;SDS011;51033;42.648;23.292;2024-01-06T13:21:42;31.40;;;15.55;;
30934;SDS011;51033;42.648;23.292;2024-01-06T13:24:08;34.95;;;14.93;;
30934;SDS011;51033;42.648;23.292;2024-01-06T13:26:34;54.80;;;17.13;;
30934;SDS011;51033;42.648;23.292;2024-01-06T13:29:00;49.10;;;16.85;;
30934;SDS011;51033;42.648;23.292;2024-01-06T13:31:27;35.42;;;13.07;;
30934;SDS011;51033;42.648;23.292;2024-01-06T13:33:52;37.08;;;15.65;;
30934;SDS011;51033;42.648;23.292;2024-01-06T13:36:19;32.30;;;18.17;;
30934;SDS011;51033;42.648;23.292;2024-01-06T13:38:45;30.27;;;14.02;;
30934;SDS011;51033;42.648;23.292;2024-01-06T13:41:11;42.05;;;15.68;;
30934;SDS011;51033;42.648;23.292;2024-01-06T13:43:36;60.22;;;17.55;;
30934;SDS011;51033;42.648;23.292;2024-01-06T13:46:02;38.05;;;16.25;;
30934;SDS011;51033;42.648;23.292;2024-01-06T13:48:28;34.15;;;19.70;;
30934;SDS011;51033;42.648;23.292;2024-01-06T13:50:57;38.05;;;19.58;;
30934;SDS011;51033;42.648;23.292;2024-01-06T13:53:23;45.03;;;20.70;;
30934;SDS011;51033;42.648;23.292;2024-01-06T13:55:49;35.83;;;18.08;;
30934;SDS011;51033;42.648;23.292;2024-01-06T13:58:15;26.10;;;18.30;;
30934;SDS011;51033;42.648;23.292;2024-01-06T14:00:40;28.92;;;15.60;;
30934;SDS011;51033;42.648;23.292;2024-01-06T14:03:07;26.70;;;15.07;;
30934;SDS011;51033;42.648;23.292;2024-01-06T14:05:33;31.92;;;14.27;;
30934;SDS011;51033;42.648;23.292;2024-01-06T14:07:58;38.33;;;22.02;;
30934;SDS011;51033;42.648;23.292;2024-01-06T14:10:24;78.10;;;36.45;;
30934;SDS011;51033;42.648;23.292;2024-01-06T14:12:51;39.78;;;18.98;;
30934;SDS011;51033;42.648;23.292;2024-01-06T14:15:20;36.95;;;20.17;;
30934;SDS011;51033;42.648;23.292;2024-01-06T14:17:46;35.47;;;17.60;;
30934;SDS011;51033;42.648;23.292;2024-01-06T14:20:14;27.40;;;15.93;;
30934;SDS011;51033;42.648;23.292;2024-01-06T14:22:43;28.95;;;15.15;;
30934;SDS011;51033;42.648;23.292;2024-01-06T14:25:09;39.63;;;17.83;;
30934;SDS011;51033;42.648;23.292;2024-01-06T14:27:35;24.25;;;16.20;;